Time;durP1;ratioP1;P1;durP2;ratioP2;P2;SDS_P1;SDS_P2;PMS_P1;PMS_P2;Temp;Humidity;BMP_temperature;BMP_pressure;BME280_temperature;BME280_humidity;BME280_pressure;Samples;Min_cycle;Max_cycle;Signal;HPM_P1;HPM_P2
2021/11/17 02:25:57;;;;;;;82.33;32.37;;;;;;;9.01;72.44;99465.16;2105084;84;21343;-77
2021/11/17 02:28:59;;;;;;;76.70;24.90;;;;;;;7.31;69.86;99466.68;2105574;84;21035;-80
2021/11/17 02:31:59;;;;;;;96.20;23.00;;;;;;;6.21;70.09;99467.80;2105719;84;20979;-78
2021/11/17 02:35:00;;;;;;;112.67;24.10;;;;;;;5.40;71.05;99468.75;2105826;84;20995;-78
2021/11/17 02:38:00;;;;;;;77.10;20.93;;;;;;;4.78;72.26;99466.89;2105916;84;20983;-78
2021/11/17 02:41:01;;;;;;;81.80;21.40;;;;;;;4.33;73.33;99464.37;2105763;84;20971;-78
2021/11/17 02:44:02;;;;;;;118.27;22.77;;;;;;;4.01;74.14;99461.57;2111825;84;21422;-77
2021/11/17 02:47:03;;;;;;;70.13;19.63;;;;;;;3.78;74.93;99464.35;2131632;83;21375;-79
2021/11/17 02:50:03;;;;;;;211.73;98.07;;;;;;;3.58;75.45;99463.78;2131929;83;21364;-82
2021/11/17 02:53:04;;;;;;;127.07;56.60;;;;;;;4.50;90.33;99460.89;2092129;85;21000;-80
2021/11/17 02:56:04;;;;;;;101.47;47.50;;;;;;;8.58;86.83;99450.46;2131881;84;20953;-78
2021/11/17 02:59:05;;;;;;;65.37;26.70;;;;;;;9.05;70.71;99443.56;2091580;85;20954;-79
2021/11/17 03:02:05;;;;;;;55.90;21.60;;;;;;;7.47;68.10;99442.11;2131870;84;21389;-78
2021/11/17 03:05:06;;;;;;;74.40;19.40;;;;;;;6.19;68.95;99447.82;2091911;85;21393;-79
2021/11/17 03:08:06;;;;;;;101.23;22.77;;;;;;;5.37;69.98;99453.09;2131533;84;21013;-77
2021/11/17 03:11:06;;;;;;;81.17;18.70;;;;;;;4.81;71.33;99448.92;2091836;85;21037;-78
2021/11/17 03:14:09;;;;;;;73.00;19.70;;;;;;;4.35;72.17;99444.68;2131946;84;21020;-79
2021/11/17 03:17:09;;;;;;;69.33;20.40;;;;;;;4.00;73.03;99446.89;2091625;85;21053;-78
2021/11/17 03:20:10;;;;;;;46.00;19.50;;;;;;;3.74;73.70;99439.19;2132067;84;21049;-78
2021/11/17 03:23:10;;;;;;;71.53;19.87;;;;;;;3.54;74.53;99443.80;2092126;85;20997;-79
2021/11/17 03:26:11;;;;;;;76.73;17.80;;;;;;;3.41;75.01;99439.29;2131916;84;20988;-79
2021/11/17 03:29:11;;;;;;;65.67;18.27;;;;;;;3.30;75.38;99443.03;2091787;85;20965;-79
2021/11/17 03:32:11;;;;;;;101.40;18.83;;;;;;;3.16;75.84;99433.72;2131930;84;21392;-80
2021/11/17 03:35:12;;;;;;;78.80;19.13;;;;;;;3.11;76.42;99434.78;2091871;85;21396;-78
2021/11/17 03:38:12;;;;;;;103.33;19.17;;;;;;;3.06;76.50;99439.23;2131931;84;21347;-79
2021/11/17 03:41:13;;;;;;;81.67;19.43;;;;;;;2.93;76.94;99446.74;2092172;85;20941;-79
2021/11/17 03:44:14;;;;;;;79.57;18.80;;;;;;;2.84;77.35;99449.73;2131160;84;21028;-78
2021/11/17 03:47:14;;;;;;;65.40;18.70;;;;;;;2.81;77.75;99446.11;2128998;84;20980;-78
2021/11/17 03:50:15;;;;;;;83.93;18.93;;;;;;;2.80;78.04;99441.36;2129128;83;20968;-79
2021/11/17 03:53:15;;;;;;;63.20;18.13;;;;;;;2.79;78.12;99445.15;2129110;84;21020;-79
2021/11/17 03:56:16;;;;;;;90.00;24.07;;;;;;;2.75;78.04;99445.80;2128882;84;21016;-79
2021/11/17 03:59:17;;;;;;;73.70;20.40;;;;;;;2.73;78.40;99439.67;2129110;84;21416;-77
2021/11/17 04:02:17;;;;;;;60.40;19.07;;;;;;;2.71;78.56;99443.46;2128707;84;21040;-79
2021/11/17 04:05:18;;;;;;;110.77;46.03;;;;;;;2.67;78.46;99448.38;2129077;84;21027;-79
2021/11/17 04:08:20;;;;;;;152.37;84.80;;;;;;;5.44;95.02;99431.81;2129144;84;20968;-80
2021/11/17 04:11:20;;;;;;;134.83;51.67;;;;;;;8.65;86.09;99424.20;2129121;83;21004;-79
2021/11/17 04:14:21;;;;;;;121.50;32.53;;;;;;;9.25;71.92;99421.11;2129027;83;21121;-79
2021/11/17 04:17:21;;;;;;;83.40;22.40;;;;;;;7.53;66.87;99422.41;2129074;84;21000;-80
2021/11/17 04:20:22;;;;;;;109.37;20.83;;;;;;;6.02;68.18;99428.58;2129057;84;20985;-80
2021/11/17 04:23:22;;;;;;;71.17;20.97;;;;;;;4.97;69.75;99427.19;2128851;84;21052;-79
2021/11/17 04:26:23;;;;;;;63.07;18.43;;;;;;;4.23;71.34;99430.75;2128704;84;21024;-80
2021/11/17 04:29:23;;;;;;;86.07;20.67;;;;;;;3.72;72.38;99422.34;2128922;84;21399;-80
2021/11/17 04:32:24;;;;;;;54.80;21.13;;;;;;;3.41;73.57;99430.26;2128956;84;21014;-78
2021/11/17 04:35:26;;;;;;;58.37;21.20;;;;;;;3.14;74.66;99422.44;2128961;83;21003;-78
2021/11/17 04:38:26;;;;;;;84.40;20.00;;;;;;;2.93;75.09;99431.27;2129014;84;21040;-78
2021/11/17 04:41:27;;;;;;;53.17;19.87;;;;;;;2.78;76.23;99430.48;2128944;84;20980;-80
2021/11/17 04:44:27;;;;;;;60.80;20.27;;;;;;;2.67;76.49;99435.09;2124278;81;21066;-79
2021/11/17 04:47:28;;;;;;;48.27;19.83;;;;;;;2.60;76.90;99423.97;2106468;85;21016;-78
2021/11/17 04:50:28;;;;;;;56.70;19.73;;;;;;;2.53;77.62;99422.73;2106363;84;21014;-81
2021/11/17 04:53:29;;;;;;;82.97;19.73;;;;;;;2.48;77.52;99422.02;2106543;84;21002;-80
2021/11/17 04:56:29;;;;;;;59.97;19.10;;;;;;;2.37;77.79;99420.16;2106448;84;21417;-79
2021/11/17 04:59:30;;;;;;;44.80;19.93;;;;;;;2.25;77.95;99418.22;2106680;84;21279;-80
2021/11/17 05:02:31;;;;;;;109.30;25.23;;;;;;;2.20;78.42;99417.97;2106434;85;21035;-80
2021/11/17 05:05:31;;;;;;;317.30;187.40;;;;;;;3.81;91.40;99409.86;2106795;84;21025;-82
2021/11/17 05:08:32;;;;;;;278.43;175.93;;;;;;;7.35;83.42;99403.62;2106813;84;21114;-83
2021/11/17 05:11:34;;;;;;;134.83;62.87;;;;;;;9.11;75.75;99400.76;2078673;85;20916;-80
2021/11/17 05:14:35;;;;;;;68.20;28.80;;;;;;;8.84;67.18;99401.78;2106416;84;21051;-78
2021/11/17 05:17:38;;;;;;;76.23;22.07;;;;;;;7.13;66.07;99403.73;2107084;85;20995;-79
2021/11/17 05:20:39;;;;;;;94.73;22.03;;;;;;;5.87;67.24;99405.04;2106357;84;21022;-80
2021/11/17 05:23:39;;;;;;;95.37;22.07;;;;;;;4.97;68.64;99410.37;2106228;84;20986;-81
2021/11/17 05:26:40;;;;;;;74.23;20.27;;;;;;;4.34;70.08;99406.73;2105464;84;21011;-81
2021/11/17 05:29:40;;;;;;;67.83;20.37;;;;;;;3.83;71.42;99414.69;2105924;84;20968;-80
2021/11/17 05:32:41;;;;;;;85.03;20.03;;;;;;;3.48;72.39;99406.55;2105250;84;20935;-80
2021/11/17 05:35:41;;;;;;;75.53;18.97;;;;;;;3.31;73.33;99406.10;2105924;84;20982;-79
2021/11/17 05:38:42;;;;;;;98.63;18.53;;;;;;;3.12;73.80;99408.58;2105814;84;20999;-79
2021/11/17 05:41:42;;;;;;;75.33;20.70;;;;;;;3.00;74.48;99411.43;2105363;84;20959;-80
2021/11/17 05:44:43;;;;;;;77.83;20.80;;;;;;;2.89;74.82;99408.72;2104896;84;21427;-77
2021/11/17 05:47:43;;;;;;;124.93;20.33;;;;;;;2.70;75.29;99417.20;2105305;84;20955;-79
2021/11/17 05:50:44;;;;;;;130.83;20.23;;;;;;;2.50;75.89;99413.55;2105182;84;20959;-80
2021/11/17 05:53:45;;;;;;;125.23;32.20;;;;;;;2.35;76.15;99414.03;2105232;84;21487;-80
2021/11/17 05:56:45;;;;;;;88.70;20.37;;;;;;;2.30;76.70;99419.75;2105749;84;20932;-78
2021/11/17 05:59:46;;;;;;;72.67;19.33;;;;;;;2.28;77.44;99418.38;2106755;84;20975;-80
2021/11/17 06:02:46;;;;;;;100.60;16.60;;;;;;;2.22;77.18;99418.94;2107143;85;20928;-80
2021/11/17 06:05:47;;;;;;;122.60;21.17;;;;;;;2.19;77.78;99422.64;2106342;84;20967;-78
2021/11/17 06:08:49;;;;;;;87.17;21.03;;;;;;;2.13;78.04;99418.84;2106055;84;20944;-79
2021/11/17 06:11:49;;;;;;;149.17;24.43;;;;;;;2.14;78.48;99423.20;2106170;84;21031;-78
2021/11/17 06:14:50;;;;;;;86.70;20.13;;;;;;;2.18;78.54;99431.57;2105335;84;20998;-80
2021/11/17 06:17:50;;;;;;;105.23;20.27;;;;;;;2.27;78.65;99430.77;2105478;84;20963;-78
2021/11/17 06:20:50;;;;;;;103.43;19.87;;;;;;;2.28;78.78;99427.80;2105447;84;20948;-80
2021/11/17 06:23:51;;;;;;;83.23;21.23;;;;;;;2.31;78.76;99440.44;2106139;84;20936;-78
2021/11/17 06:26:52;;;;;;;129.03;20.57;;;;;;;2.32;78.72;99442.21;2105407;84;21386;-80
2021/11/17 06:29:53;;;;;;;77.13;26.97;;;;;;;2.36;78.82;99439.00;2105557;84;20991;-79
2021/11/17 06:32:57;;;;;;;80.10;21.67;;;;;;;2.33;78.58;99436.66;2105447;84;20974;-80
2021/11/17 06:35:56;;;;;;;83.30;20.57;;;;;;;2.27;78.65;99442.37;2106164;85;21062;-79
2021/11/17 06:38:57;;;;;;;119.77;20.87;;;;;;;2.27;78.84;99437.22;2106874;84;21666;-80
2021/11/17 06:41:57;;;;;;;93.17;20.63;;;;;;;2.31;78.89;99446.88;2105594;84;21019;-80
2021/11/17 06:44:58;;;;;;;94.10;20.37;;;;;;;2.30;78.88;99442.53;2104863;84;20963;-80
2021/11/17 06:47:59;;;;;;;55.30;18.60;;;;;;;2.35;79.21;99442.38;2105164;85;20943;-78
2021/11/17 06:50:59;;;;;;;79.73;19.80;;;;;;;2.38;79.04;99441.25;2105292;84;20988;-80
2021/11/17 06:54:00;;;;;;;60.03;18.07;;;;;;;2.36;78.81;99442.86;2105228;84;21682;-79
2021/11/17 06:57:00;;;;;;;77.87;19.90;;;;;;;2.33;78.93;99439.23;2105579;84;20952;-79
2021/11/17 07:00:01;;;;;;;54.07;18.37;;;;;;;2.35;78.92;99443.66;2106175;84;21027;-80
2021/11/17 07:03:01;;;;;;;72.50;18.17;;;;;;;2.40;78.99;99451.64;2106233;84;21011;-80
2021/11/17 07:06:02;;;;;;;76.40;20.80;;;;;;;2.41;78.87;99450.44;2106312;84;21026;-79
2021/11/17 07:09:02;;;;;;;70.37;18.50;;;;;;;2.47;78.89;99448.18;2105416;84;21426;-79
2021/11/17 07:12:03;;;;;;;74.63;20.00;;;;;;;2.48;78.44;99447.78;2106924;85;20984;-79
2021/11/17 07:15:03;;;;;;;83.70;20.67;;;;;;;2.47;78.72;99450.76;2105606;84;20978;-80
2021/11/17 07:18:04;;;;;;;56.70;20.00;;;;;;;2.52;78.71;99454.47;2100252;84;20956;-79
2021/11/17 07:21:04;;;;;;;167.57;27.27;;;;;;;2.53;78.66;99451.08;2104066;84;21008;-80
2021/11/17 07:27:39;;;;;;;71.97;21.30;;;;;;;2.58;79.14;99451.33;2104410;84;20974;-79
2021/11/17 07:30:39;;;;;;;59.73;21.17;;;;;;;2.65;79.05;99446.13;2104975;84;20956;-78
2021/11/17 07:33:41;;;;;;;64.63;21.67;;;;;;;2.71;78.95;99441.28;2104747;85;20955;-80
2021/11/17 07:36:41;;;;;;;68.57;19.63;;;;;;;2.76;78.68;99438.55;2104736;84;21363;-80
2021/11/17 07:39:42;;;;;;;68.03;20.07;;;;;;;2.78;78.54;99438.22;2105359;84;20999;-80
2021/11/17 07:42:42;;;;;;;66.73;17.77;;;;;;;2.82;78.27;99442.73;2105589;84;20932;-80
2021/11/17 07:45:42;;;;;;;50.53;18.53;;;;;;;2.77;78.18;99446.77;2115379;83;21431;-80
2021/11/17 07:48:43;;;;;;;61.00;19.77;;;;;;;2.76;78.21;99447.16;2136035;83;21304;-81
2021/11/17 07:51:44;;;;;;;39.83;20.70;;;;;;;2.82;78.44;99447.89;2135626;83;21028;-79
2021/11/17 07:54:44;;;;;;;68.43;21.80;;;;;;;2.87;78.31;99444.73;2135633;83;20964;-79
2021/11/17 07:57:45;;;;;;;55.87;19.70;;;;;;;2.87;78.14;99445.14;2135496;83;20982;-79
2021/11/17 08:00:47;;;;;;;45.87;19.70;;;;;;;2.93;78.35;99443.28;2135500;83;21068;-80
2021/11/17 08:03:47;;;;;;;45.57;21.70;;;;;;;2.99;78.31;99447.05;2135028;83;20960;-79
2021/11/17 08:06:48;;;;;;;45.80;23.37;;;;;;;3.09;78.00;99435.11;2135759;83;21415;-79
2021/11/17 08:09:48;;;;;;;37.00;20.13;;;;;;;3.21;77.78;99438.70;2135645;83;21348;-79
2021/11/17 08:12:49;;;;;;;71.97;22.37;;;;;;;3.30;77.76;99444.33;2135280;83;21766;-79
2021/11/17 08:15:49;;;;;;;31.17;20.00;;;;;;;3.36;77.59;99450.20;2135095;83;20976;-79
2021/11/17 08:18:50;;;;;;;35.47;21.90;;;;;;;3.34;77.42;99456.98;2135608;83;20928;-78
2021/11/17 08:21:50;;;;;;;83.67;28.23;;;;;;;3.40;77.62;99458.16;2135474;83;21000;-81
2021/11/17 08:24:51;;;;;;;37.43;21.53;;;;;;;3.52;77.63;99454.05;2135373;83;21352;-79
2021/11/17 08:27:51;;;;;;;54.63;19.47;;;;;;;3.58;77.44;99450.88;2135301;83;20976;-78
2021/11/17 08:30:52;;;;;;;58.83;17.63;;;;;;;3.56;76.76;99452.09;2135290;83;20968;-79
2021/11/17 08:33:52;;;;;;;70.00;21.70;;;;;;;3.48;76.67;99458.58;2135629;83;21023;-79
2021/11/17 08:36:53;;;;;;;119.67;20.60;;;;;;;3.39;76.77;99459.37;2134940;83;20960;-80
2021/11/17 08:39:55;;;;;;;39.93;20.20;;;;;;;3.48;77.27;99463.74;2134489;83;21388;-79
2021/11/17 08:42:56;;;;;;;34.67;20.30;;;;;;;3.60;76.98;99458.30;2135433;83;21043;-79
2021/11/17 08:45:57;;;;;;;42.60;20.63;;;;;;;3.64;76.76;99453.36;2134453;82;21052;-79
2021/11/17 08:48:58;;;;;;;404.07;40.67;;;;;;;3.68;77.09;99451.40;2128897;83;20985;-77
2021/11/17 08:51:58;;;;;;;44.73;21.63;;;;;;;3.78;77.09;99448.86;2127350;84;21387;-79
2021/11/17 08:54:59;;;;;;;54.47;22.73;;;;;;;3.88;76.93;99451.06;2127240;83;21446;-77
2021/11/17 08:57:59;;;;;;;39.53;24.43;;;;;;;3.93;76.80;99444.83;2126844;84;21032;-78
2021/11/17 09:01:00;;;;;;;60.80;24.20;;;;;;;4.03;77.14;99442.75;2127029;84;20992;-78
2021/11/17 09:04:01;;;;;;;55.87;22.73;;;;;;;4.26;77.00;99434.77;2126839;84;20984;-77
2021/11/17 09:07:01;;;;;;;79.13;24.73;;;;;;;4.36;76.55;99432.23;2127518;83;20933;-79
2021/11/17 09:10:02;;;;;;;54.33;25.23;;;;;;;4.51;76.39;99433.33;2127943;84;20964;-78
2021/11/17 09:13:02;;;;;;;30.93;22.00;;;;;;;4.59;76.01;99433.27;2127593;83;20949;-77
2021/11/17 09:16:03;;;;;;;34.60;23.67;;;;;;;4.71;76.06;99426.94;2127552;83;21599;-78
2021/11/17 09:19:03;;;;;;;58.33;37.43;;;;;;;4.83;75.68;99425.30;2127362;83;21755;-77
2021/11/17 09:22:04;;;;;;;52.13;25.07;;;;;;;4.89;75.47;99433.32;2126976;84;20941;-79
2021/11/17 09:25:04;;;;;;;40.17;24.90;;;;;;;4.97;74.95;99439.71;2127462;84;21004;-78
2021/11/17 09:28:05;;;;;;;41.37;25.37;;;;;;;4.96;74.73;99439.23;2127263;83;21000;-79
2021/11/17 09:31:06;;;;;;;44.47;25.40;;;;;;;4.87;74.84;99440.54;2127643;84;21615;-78
2021/11/17 09:34:06;;;;;;;41.83;24.67;;;;;;;4.91;74.90;99442.44;2127604;83;21722;-78
2021/11/17 09:37:08;;;;;;;44.97;25.50;;;;;;;5.00;74.86;99438.55;2128003;83;20961;-78
2021/11/17 09:40:08;;;;;;;51.03;24.47;;;;;;;5.01;75.07;99436.44;2127045;84;21008;-81
2021/11/17 09:43:09;;;;;;;46.90;25.57;;;;;;;5.13;75.13;99434.38;2127214;83;20959;-80
2021/11/17 09:46:09;;;;;;;37.97;24.57;;;;;;;5.29;75.04;99424.29;2126881;84;21055;-79
2021/11/17 09:49:10;;;;;;;39.90;24.43;;;;;;;5.34;74.49;99422.78;2126701;83;21039;-78
2021/11/17 09:52:11;;;;;;;39.67;25.37;;;;;;;5.31;74.52;99423.94;2126922;84;21008;-78
2021/11/17 09:55:11;;;;;;;50.20;24.73;;;;;;;5.41;74.56;99422.20;2127764;83;21020;-78
2021/11/17 09:58:11;;;;;;;52.13;25.27;;;;;;;5.39;74.65;99429.03;2127196;84;20980;-79
2021/11/17 10:01:12;;;;;;;38.13;26.17;;;;;;;5.52;74.58;99421.35;2127105;83;20957;-78
2021/11/17 10:04:14;;;;;;;36.47;25.27;;;;;;;5.59;74.37;99419.48;2127103;83;20977;-78
2021/11/17 10:07:36;;;;;;;42.70;26.13;;;;;;;5.71;74.38;99420.39;2126836;83;21411;-77
2021/11/17 10:13:44;;;;;;;40.20;26.37;;;;;;;5.86;73.70;99407.16;2127264;83;20992;-79
2021/11/17 10:16:44;;;;;;;42.93;28.60;;;;;;;5.90;73.61;99406.08;2127000;84;21125;-80
2021/11/17 10:19:45;;;;;;;49.03;27.60;;;;;;;5.91;73.82;99405.66;2127989;83;20965;-78
2021/11/17 10:22:46;;;;;;;39.23;28.37;;;;;;;5.95;73.51;99398.07;2127906;84;21416;-77
2021/11/17 10:25:47;;;;;;;47.80;29.10;;;;;;;5.95;73.51;99398.07;2127371;83;21052;-79
2021/11/17 10:28:47;;;;;;;43.37;29.00;;;;;;;5.99;73.52;99400.37;2127907;83;21016;-78
2021/11/17 10:31:48;;;;;;;47.80;30.40;;;;;;;5.96;73.57;99395.06;2127913;84;21722;-77
2021/11/17 10:34:48;;;;;;;57.20;30.60;;;;;;;6.02;73.37;99396.59;2127978;83;20988;-79
2021/11/17 10:37:49;;;;;;;52.90;31.13;;;;;;;6.14;73.44;99400.10;2127436;84;21008;-79
2021/11/17 10:40:49;;;;;;;56.13;32.03;;;;;;;6.16;73.20;99400.63;2126775;83;20980;-79
2021/11/17 10:43:50;;;;;;;49.47;32.73;;;;;;;6.15;73.39;99396.27;2126515;83;20988;-77
2021/11/17 10:46:51;;;;;;;60.70;33.03;;;;;;;6.25;73.26;99395.80;2126432;84;21063;-79
2021/11/17 10:49:52;;;;;;;55.63;33.10;;;;;;;6.38;72.88;99400.61;2132605;83;21458;-79
2021/11/17 10:52:52;;;;;;;52.20;33.93;;;;;;;6.41;72.69;99401.14;2134482;83;21004;-81
2021/11/17 10:55:56;;;;;;;47.13;33.00;;;;;;;6.78;74.22;99395.98;2133929;83;21012;-80
2021/11/17 10:58:57;;;;;;;48.43;32.83;;;;;;;6.91;72.30;99387.38;2134296;83;20940;-79
2021/11/17 11:01:58;;;;;;;49.23;32.20;;;;;;;6.96;71.76;99375.90;2135108;83;21027;-80
2021/11/17 11:04:58;;;;;;;52.17;34.00;;;;;;;7.02;71.75;99379.59;2134876;83;21000;-80
2021/11/17 11:08:01;;;;;;;51.13;32.57;;;;;;;7.09;71.73;99381.09;2134568;83;20968;-80
2021/11/17 11:11:01;;;;;;;65.10;35.10;;;;;;;7.15;71.26;99379.59;2136182;83;21124;-81
2021/11/17 11:14:02;;;;;;;57.10;34.90;;;;;;;7.24;71.74;99381.20;2136210;83;21007;-79
2021/11/17 11:17:02;;;;;;;73.23;33.67;;;;;;;7.31;71.37;99377.09;2135519;83;21042;-80
2021/11/17 11:20:03;;;;;;;73.40;37.27;;;;;;;7.30;70.81;99363.22;2135442;83;21028;-80
2021/11/17 11:23:03;;;;;;;89.97;41.57;;;;;;;7.23;71.08;99359.08;2135519;83;21008;-81
2021/11/17 11:26:04;;;;;;;54.30;36.07;;;;;;;7.26;71.13;99363.07;2135506;83;20963;-80
2021/11/17 11:29:04;;;;;;;108.40;40.10;;;;;;;7.32;71.13;99356.78;2135296;83;21068;-80
2021/11/17 11:32:05;;;;;;;58.17;37.53;;;;;;;7.42;71.19;99365.75;2135348;83;20932;-80
2021/11/17 11:35:06;;;;;;;71.03;38.60;;;;;;;7.47;70.98;99366.37;2135335;83;20992;-81
2021/11/17 11:38:06;;;;;;;59.40;38.30;;;;;;;7.43;70.44;99355.41;2136243;83;21460;-80
2021/11/17 11:41:07;;;;;;;58.57;35.97;;;;;;;7.28;70.68;99354.50;2136047;83;21048;-80
2021/11/17 11:44:07;;;;;;;66.53;37.43;;;;;;;7.26;71.11;99356.58;2135476;83;20956;-79
2021/11/17 11:47:08;;;;;;;66.30;38.73;;;;;;;7.13;71.34;99353.98;2135437;83;21000;-79
2021/11/17 11:50:08;;;;;;;62.83;38.77;;;;;;;7.08;71.80;99355.55;2109469;83;20991;-80
2021/11/17 11:53:09;;;;;;;83.30;39.90;;;;;;;7.13;71.99;99356.59;2104847;84;21615;-80
2021/11/17 11:56:09;;;;;;;64.77;39.43;;;;;;;7.12;71.92;99350.05;2104889;84;20999;-81
2021/11/17 11:59:10;;;;;;;57.70;37.53;;;;;;;7.12;71.91;99348.33;2105450;85;20963;-80
2021/11/17 12:02:10;;;;;;;60.50;39.83;;;;;;;7.03;71.76;99347.61;2105412;84;20936;-80
2021/11/17 12:05:12;;;;;;;70.30;39.77;;;;;;;6.92;72.06;99344.15;2104992;84;20967;-81
2021/11/17 12:08:12;;;;;;;81.70;38.97;;;;;;;6.92;72.60;99348.92;2105300;84;21000;-78
2021/11/17 12:11:13;;;;;;;63.10;39.67;;;;;;;6.98;72.82;99347.87;2106131;85;20996;-79
2021/11/17 12:14:13;;;;;;;74.43;40.00;;;;;;;7.03;73.00;99347.61;2105031;84;21019;-80
2021/11/17 12:17:14;;;;;;;192.20;52.07;;;;;;;7.03;72.87;99337.23;2105593;84;21694;-79
2021/11/17 12:20:14;;;;;;;76.27;45.67;;;;;;;7.03;73.23;99332.03;2105300;84;20951;-79
2021/11/17 12:23:15;;;;;;;73.70;41.97;;;;;;;7.10;73.05;99336.13;2104496;84;20947;-79
2021/11/17 12:26:15;;;;;;;74.20;43.43;;;;;;;7.09;73.07;99340.86;2105431;84;20968;-80
2021/11/17 12:29:16;;;;;;;62.73;41.60;;;;;;;7.08;73.14;99340.39;2105453;84;20978;-79
2021/11/17 12:32:16;;;;;;;66.83;42.07;;;;;;;7.10;73.41;99340.91;2105371;84;21944;-79
2021/11/17 12:35:17;;;;;;;79.27;45.30;;;;;;;7.16;73.49;99332.44;2106091;84;21371;-79
2021/11/17 12:38:18;;;;;;;54.97;38.03;;;;;;;7.18;73.48;99330.36;2105627;84;20999;-79
2021/11/17 12:41:19;;;;;;;68.67;42.90;;;;;;;7.16;73.50;99332.44;2105864;84;21382;-80
2021/11/17 12:44:19;;;;;;;152.40;48.00;;;;;;;7.03;73.67;99337.23;2106514;84;21043;-80
2021/11/17 12:47:20;;;;;;;95.63;45.77;;;;;;;6.94;74.02;99327.83;2105538;84;21085;-81
2021/11/17 12:50:20;;;;;;;975.57;112.33;;;;;;;6.92;74.32;99332.05;2105923;83;21046;-80
2021/11/17 12:53:21;;;;;;;92.97;46.00;;;;;;;6.90;74.56;99329.83;2107202;84;20968;-80
2021/11/17 12:56:23;;;;;;;79.37;46.50;;;;;;;6.92;74.57;99326.86;2106400;84;21008;-81
2021/11/17 12:59:24;;;;;;;101.70;44.40;;;;;;;6.91;74.81;99322.92;2106936;84;21038;-82
2021/11/17 13:02:24;;;;;;;72.63;40.57;;;;;;;6.94;74.92;99319.16;2106365;84;21685;-81
2021/11/17 13:05:25;;;;;;;69.60;41.30;;;;;;;6.87;74.93;99320.64;2105585;84;21023;-80
2021/11/17 13:08:25;;;;;;;65.50;40.53;;;;;;;6.78;75.22;99320.32;2105669;84;20979;-79
2021/11/17 13:11:26;;;;;;;69.73;41.90;;;;;;;6.78;75.67;99320.32;2105769;84;20990;-79
2021/11/17 13:14:26;;;;;;;124.67;45.57;;;;;;;6.74;75.53;99311.97;2105754;84;21007;-80
2021/11/17 13:17:27;;;;;;;70.03;39.70;;;;;;;6.61;75.74;99308.07;2105382;84;21016;-79
2021/11/17 13:20:27;;;;;;;83.87;44.53;;;;;;;6.55;76.13;99304.38;2104949;84;20995;-79
2021/11/17 13:23:28;;;;;;;70.63;40.80;;;;;;;6.51;76.19;99303.80;2104616;84;21006;-79
2021/11/17 13:26:29;;;;;;;114.30;43.33;;;;;;;6.51;76.36;99295.61;2104799;84;20975;-75
2021/11/17 13:29:29;;;;;;;62.30;41.80;;;;;;;6.47;76.51;99291.56;2104915;84;20987;-78
2021/11/17 13:32:30;;;;;;;90.70;48.33;;;;;;;6.44;76.60;99292.34;2104929;84;21335;-79
2021/11/17 13:35:30;;;;;;;81.10;47.70;;;;;;;6.41;76.98;99288.75;2105028;84;21331;-78
2021/11/17 13:38:31;;;;;;;66.13;41.47;;;;;;;6.33;77.00;99288.06;2105213;84;20967;-79
2021/11/17 13:41:33;;;;;;;154.63;48.63;;;;;;;6.34;77.26;99292.42;2106072;84;20975;-79
2021/11/17 13:44:33;;;;;;;77.63;43.53;;;;;;;6.34;77.33;99296.31;2106133;84;21067;-80
2021/11/17 13:47:33;;;;;;;71.10;44.37;;;;;;;6.32;77.37;99301.86;2105800;84;21010;-80
2021/11/17 13:50:35;;;;;;;69.37;44.23;;;;;;;6.27;77.42;99298.22;2105787;83;20999;-79
2021/11/17 13:53:36;;;;;;;71.67;46.13;;;;;;;6.25;77.71;99308.95;2106068;84;21070;-79
2021/11/17 13:56:37;;;;;;;122.63;50.40;;;;;;;6.20;77.63;99303.12;2106316;84;20955;-81
2021/11/17 13:59:37;;;;;;;74.50;46.10;;;;;;;6.16;77.96;99307.31;2106051;84;20948;-79
2021/11/17 14:02:38;;;;;;;72.27;44.93;;;;;;;6.13;77.99;99305.91;2104673;84;20972;-79
2021/11/17 14:05:40;;;;;;;71.13;45.63;;;;;;;6.12;78.21;99303.27;2105036;85;20994;-78
2021/11/17 14:08:40;;;;;;;74.93;44.47;;;;;;;6.08;78.31;99303.98;2105063;84;21588;-79
2021/11/17 14:11:41;;;;;;;88.57;51.97;;;;;;;6.03;78.53;99297.30;2104588;84;20971;-78
2021/11/17 14:14:41;;;;;;;98.67;56.13;;;;;;;6.03;78.67;99302.48;2104559;84;21003;-78
2021/11/17 14:17:41;;;;;;;119.20;57.57;;;;;;;6.03;78.68;99299.89;2104200;84;21058;-78
2021/11/17 14:20:42;;;;;;;98.73;55.53;;;;;;;6.02;78.89;99296.83;2104045;84;21712;-78
2021/11/17 14:23:42;;;;;;;89.13;56.40;;;;;;;6.01;78.93;99289.88;2103778;84;21319;-78
2021/11/17 14:26:43;;;;;;;93.47;55.60;;;;;;;5.99;78.90;99292.83;2104174;84;20963;-79
2021/11/17 14:29:44;;;;;;;114.47;55.37;;;;;;;5.98;79.08;99285.88;2104199;85;20990;-78
2021/11/17 14:32:45;;;;;;;102.40;58.13;;;;;;;5.96;79.29;99283.64;2105464;84;20999;-80
2021/11/17 14:35:45;;;;;;;91.30;53.87;;;;;;;5.96;79.32;99288.83;2105703;84;21046;-79
2021/11/17 14:38:46;;;;;;;86.13;53.87;;;;;;;5.96;79.43;99286.23;2106819;84;21378;-79
2021/11/17 14:41:46;;;;;;;83.83;51.70;;;;;;;5.93;79.43;99277.05;2107080;84;21339;-77
2021/11/17 14:44:47;;;;;;;97.10;52.33;;;;;;;5.93;79.57;99283.53;2106912;84;20983;-79
2021/11/17 14:47:47;;;;;;;88.57;52.27;;;;;;;5.89;79.69;99277.73;2106901;84;21023;-80
2021/11/17 14:50:48;;;;;;;101.90;52.70;;;;;;;5.87;79.78;99281.56;2106821;84;20995;-77
2021/11/17 14:53:48;;;;;;;95.70;54.70;;;;;;;5.88;79.95;99287.63;2106415;84;21026;-78
2021/11/17 14:56:49;;;;;;;108.33;55.63;;;;;;;5.88;80.01;99286.33;2106907;85;21015;-79
2021/11/17 14:59:49;;;;;;;98.17;56.87;;;;;;;5.89;80.02;99284.20;2106808;84;21138;-80
2021/11/17 15:02:52;;;;;;;94.53;58.53;;;;;;;5.90;80.02;99294.66;2107205;84;21027;-80
2021/11/17 15:05:52;;;;;;;98.63;58.77;;;;;;;5.91;80.03;99293.84;2107303;85;21066;-79
2021/11/17 15:08:52;;;;;;;99.80;61.60;;;;;;;5.91;80.12;99298.14;2106436;84;20960;-79
2021/11/17 15:11:53;;;;;;;102.93;60.57;;;;;;;5.88;80.06;99296.69;2107670;84;20948;-78
2021/11/17 15:14:53;;;;;;;104.63;61.17;;;;;;;5.89;80.24;99289.02;2107394;84;21026;-79
2021/11/17 15:17:55;;;;;;;477.40;81.53;;;;;;;5.90;80.18;99290.78;2107235;84;21030;-80
2021/11/17 15:20:55;;;;;;;106.10;62.17;;;;;;;5.94;80.27;99287.89;2107168;84;20976;-79
2021/11/17 15:23:56;;;;;;;412.77;86.40;;;;;;;5.97;80.18;99285.41;2107098;84;21028;-81
2021/11/17 15:26:57;;;;;;;123.70;64.87;;;;;;;6.00;80.33;99288.11;2108303;84;20960;-79
2021/11/17 15:29:57;;;;;;;123.77;66.20;;;;;;;6.03;80.18;99290.41;2107777;84;20999;-79
2021/11/17 15:32:58;;;;;;;149.37;66.33;;;;;;;6.08;80.14;99294.49;2107680;84;20995;-79
2021/11/17 15:35:58;;;;;;;105.67;62.07;;;;;;;6.11;80.00;99292.02;2108308;84;21055;-80
2021/11/17 15:38:59;;;;;;;371.57;73.03;;;;;;;6.12;79.97;99293.78;2107601;84;20944;-79
2021/11/17 15:41:59;;;;;;;197.57;64.97;;;;;;;6.05;79.93;99290.05;2106666;84;20960;-80
2021/11/17 15:44:59;;;;;;;211.33;142.93;;;;;;;6.03;80.19;99288.22;2107467;84;20972;-80
2021/11/17 15:48:00;;;;;;;128.63;69.57;;;;;;;5.99;80.16;99283.34;2107060;84;21014;-79
2021/11/17 15:51:00;;;;;;;103.40;57.40;;;;;;;5.97;80.19;99282.81;2106422;84;21046;-80
2021/11/17 15:54:01;;;;;;;88.83;52.30;;;;;;;5.96;80.25;99284.94;2106096;84;20987;-80
2021/11/17 15:57:01;;;;;;;94.07;56.17;;;;;;;5.93;80.30;99283.53;2106554;84;20947;-79
2021/11/17 16:00:02;;;;;;;84.93;52.07;;;;;;;5.91;80.43;99286.48;2106967;84;21326;-79
2021/11/17 16:03:02;;;;;;;86.70;52.33;;;;;;;5.87;80.47;99285.45;2107025;84;21704;-79
2021/11/17 16:06:04;;;;;;;85.63;50.33;;;;;;;5.86;80.60;99283.69;2106770;84;20987;-79
2021/11/17 16:09:04;;;;;;;78.90;49.83;;;;;;;5.87;80.63;99285.86;2106759;84;20955;-79
2021/11/17 16:12:05;;;;;;;81.83;50.57;;;;;;;5.84;80.67;99280.16;2107383;84;20995;-79
2021/11/17 16:15:05;;;;;;;84.07;50.63;;;;;;;5.84;80.75;99277.97;2108042;84;20975;-79
2021/11/17 16:18:06;;;;;;;77.63;48.97;;;;;;;5.83;80.81;99283.98;2107925;84;21035;-78
2021/11/17 16:21:09;;;;;;;83.30;48.77;;;;;;;5.84;80.91;99291.81;2107750;84;20968;-79
2021/11/17 16:27:28;;;;;;;125.60;53.73;;;;;;;5.86;81.01;99289.27;2108127;84;20955;-80
2021/11/17 16:30:29;;;;;;;85.33;50.93;;;;;;;5.87;81.06;99293.63;2108031;84;21050;-78
2021/11/17 16:33:30;;;;;;;94.47;52.13;;;;;;;5.85;81.00;99294.88;2107463;84;21015;-78